Content
SEND FEEDBACK

Daily
Averages
Monthly
Summary
Libya

AL 'QURIYAH, LIBYA


Home > Africa > Libya
Elevation: 131 meters     Latitude: 32 05N     Longitude: 020 16E

WEATHER
 
SELECT A DAY
Number of Records: 155,470;   Date Range: 7/1/96 - 6/21/14
 
SHARE

PRINT THIS DATA

[ ← Previous Day ]
WEATHER ALMANAC - 31 JANUARY, 2013
[ Next Day → ]
[ °F ]   °C
Weather ElementAverageHighLow
Temperature14.7 °C17.2 °C (1:00 pm)12 °C (1:20 am)
Dewpoint9.7 °C11 °C (12:50 pm)7 °C (1:20 am)
Humidity70.8 %77 % (9:20 am)55 % (1:00 pm)
Barometer1020 hPa1021.7 hPa (1:00 am)1019 hPa (1:50 pm)
Wind Speed27 km/h46.3 km/h (4:20 pm)
Weather ElementAverage
Visibility9.8 km
Wind DirectionWNW (304.7 °)

Weather ElementTotal
Precipitation---
Heating Degree Days3.7 (Base 18.3)
Growing Degree Days4.6 (Base 10)
Averaged from 51 records on 31 January, 2013
WEATHER CONDITIONS BREAKOUT
WIND DIRECTION BREAKOUT
WEATHER BY HOUR - 31 JANUARY, 2013
[ °F ]   °C
Local TimeTemperatureDewpointHumidityBarometerVisibilityWind DirectionWind SpeedGust SpeedPrecipitationEventsConditions
1:00 AM12.8 °C8.3 °C67 %1021.7 hPa9.7 kmNW (320°)22.2 km/hScattered Clouds
1:20 AM12 °C7 °C72 %1021 hPa10 kmNW (320°)24.1 km/hScattered Clouds
2:15 AM13 °C8 °C72 %1021 hPa10 kmWNW (300°)27.8 km/hMostly Cloudy
2:50 AM13 °C8 °C72 %1020 hPa10 kmWNW (300°)18.5 km/hMostly Cloudy
3:15 AM13 °C8 °C72 %1020 hPa10 kmWNW (300°)18.5 km/hMostly Cloudy
3:50 AM13 °C8 °C72 %1020 hPa10 kmWest (280°)18.5 km/hMostly Cloudy
4:00 AM12.8 °C8.3 °C65 %1021 hPa9.7 kmWest (280°)18.5 km/hPartly Cloudy
4:15 AM14 °C8 °C67 %1020 hPa10 kmWest (280°)18.5 km/hMostly Cloudy
4:50 AM13 °C8 °C72 %1020 hPa10 kmWest (280°)18.5 km/hMostly Cloudy
5:15 AM14 °C8 °C67 %1020 hPa10 kmWNW (300°)27.8 km/hMostly Cloudy
5:50 AM13 °C8 °C72 %1020 hPa10 kmWNW (290°)18.5 km/hMostly Cloudy
6:25 AM14 °C9 °C72 %1020 hPa10 kmWNW (300°)27.8 km/hMostly Cloudy
7:00 AM13.9 °C8.3 °C62 %1021 hPa9.7 kmNW (320°)33.3 km/hMostly Cloudy
7:25 AM13 °C8 °C72 %1020 hPa10 kmNW (310°)27.8 km/hScattered Clouds
7:50 AM14 °C9 °C72 %1021 hPa8 kmNW (310°)27.8 km/hScattered Clouds
8:20 AM14 °C9 °C72 %1021 hPa8 kmNW (310°)18.5 km/hMostly Cloudy
8:50 AM15 °C10 °C72 %1021 hPa8 kmWNW (290°)18.5 km/hMostly Cloudy
9:20 AM14 °C10 °C77 %1021 hPa10 kmWNW (300°)14.8 km/hMostly Cloudy
9:50 AM15 °C10 °C72 %1021 hPa10 kmNW (320°)18.5 km/hMostly Cloudy
10:00 AM14.4 °C10 °C68 %1021.3 hPa9.7 kmNW (320°)18.5 km/hMostly Cloudy
10:20 AM16 °C10 °C68 %1021 hPa10 kmWNW (290°)27.8 km/hMostly Cloudy
10:45 AM16 °C10 °C68 %1021 hPa10 kmWest (280°)27.8 km/hMostly Cloudy
11:20 AM16 °C10 °C68 %1021 hPa10 kmWest (280°)33.3 km/hMostly Cloudy
11:45 AM17 °C10 °C63 %1020 hPa10 kmWNW (300°)27.8 km/hMostly Cloudy
12:20 PM16 °C10 °C68 %1020 hPa10 kmWNW (300°)33.3 km/hMostly Cloudy
12:50 PM17 °C11 °C68 %1020 hPa10 kmWNW (300°)37 km/hMostly Cloudy
1:00 PM17.2 °C10.6 °C55 %1020.7 hPa9.7 kmWNW (300°)37 km/hMostly Cloudy
1:20 PM17 °C11 °C68 %1020 hPa10 kmNW (310°)27.8 km/hMostly Cloudy
1:50 PM16 °C11 °C72 %1019 hPa10 kmWNW (300°)37 km/hMostly Cloudy
2:28 PM16 °C10 °C68 %1019 hPa10 kmWNW (300°)27.8 km/hMostly Cloudy
2:50 PM16 °C11 °C72 %1019 hPa10 kmWNW (300°)37 km/hMostly Cloudy
3:20 PM16 °C11 °C72 %1019 hPa10 kmWNW (300°)37 km/hMostly Cloudy
3:50 PM16 °C11 °C72 %1019 hPa10 kmWNW (300°)27.8 km/hMostly Cloudy
4:00 PM15.6 °C10.6 °C64 %1019.6 hPa9.7 kmWNW (300°)27.8 km/hMostly Cloudy
4:20 PM15 °C10 °C72 %1019 hPa10 kmNW (320°)46.3 km/hMostly Cloudy
4:50 PM15 °C10 °C72 %1019 hPa10 kmWNW (300°)27.8 km/hMostly Cloudy
5:40 PM14 °C10 °C77 %1019 hPa10 kmNW (310°)27.8 km/hMostly Cloudy
6:20 PM14 °C10 °C77 %1019 hPa10 kmNW (320°)37 km/hMostly Cloudy
6:50 PM15 °C11 °C77 %1019 hPa10 kmNW (320°)27.8 km/hMostly Cloudy
7:00 PM15 °C10.6 °C68 %1019.6 hPa9.7 kmNW (320°)27.8 km/hPartly Cloudy
7:20 PM16 °C10 °C68 %1019 hPa10 kmNW (320°)27.8 km/hMostly Cloudy
7:50 PM15 °C11 °C77 %1019 hPa10 kmWNW (290°)18.5 km/hMostly Cloudy
8:15 PM15 °C10 °C72 %1019 hPa10 kmWNW (300°)18.5 km/hMostly Cloudy
8:45 PM15 °C10 °C72 %1019 hPa10 kmWNW (300°)22.2 km/hMostly Cloudy
9:20 PM15 °C11 °C77 %1019 hPa10 kmNW (320°)27.8 km/hMostly Cloudy
9:45 PM15 °C10 °C72 %1020 hPa10 kmNW (320°)37 km/hMostly Cloudy
10:00 PM14.4 °C10 °C68 %1020 hPa9.7 kmNW (320°)37 km/hPartly Cloudy
10:20 PM15 °C11 °C77 %1020 hPa10 kmWNW (300°)27.8 km/hMostly Cloudy
10:45 PM14 °C10 °C77 %1020 hPa10 kmNNW (330°)27.8 km/hPartly Cloudy
11:20 PM14 °C10 °C77 %1020 hPa10 kmNNW (330°)27.8 km/hScattered Clouds
11:45 PM14 °C10 °C77 %1020 hPa10 kmNNW (330°)29.6 km/hScattered Clouds
Hourly data recorded from HLLB, located 0 kilometers away from Al 'quriyah, Libya







STORIES FROM OUR PARTNERS